Time;durP1;ratioP1;P1;durP2;ratioP2;P2;SDS_P1;SDS_P2;PMS_P1;PMS_P2;Temp;Humidity;BMP_temperature;BMP_pressure;BME280_temperature;BME280_humidity;BME280_pressure;Samples;Min_cycle;Max_cycle;Signal;HPM_P1;HPM_P2
2022/07/09 00:01:01;;;;;;;3.63;1.30;;;16.00;59.90;;;;;;4874588;29;20228;-63
2022/07/09 00:03:27;;;;;;;1.60;1.33;;;15.90;61.00;;;;;;4848867;29;20192;-63
2022/07/09 00:05:52;;;;;;;3.47;1.53;;;15.80;61.20;;;;;;4868530;29;20203;-63
2022/07/09 00:08:18;;;;;;;2.70;1.90;;;15.80;61.50;;;;;;4849927;29;20197;-63
2022/07/09 00:10:44;;;;;;;2.03;1.20;;;15.80;61.10;;;;;;4865839;29;20200;-63
2022/07/09 00:13:09;;;;;;;4.43;1.43;;;15.80;59.70;;;;;;4852776;29;20205;-63
2022/07/09 00:15:35;;;;;;;1.37;1.20;;;15.70;61.40;;;;;;4846620;29;20211;-63
2022/07/09 00:18:01;;;;;;;3.50;1.47;;;15.70;61.80;;;;;;4865975;29;20236;-63
2022/07/09 00:20:27;;;;;;;4.13;1.63;;;15.70;61.60;;;;;;4867257;29;20231;-63
2022/07/09 00:22:53;;;;;;;2.33;1.50;;;15.60;61.80;;;;;;4867998;29;20230;-63
2022/07/09 00:25:18;;;;;;;2.67;1.23;;;15.60;62.90;;;;;;4867713;29;20199;-62
2022/07/09 00:27:44;;;;;;;2.03;1.63;;;15.50;63.10;;;;;;4852369;29;20755;-63
2022/07/09 00:30:10;;;;;;;2.43;1.73;;;15.40;63.60;;;;;;4849782;29;20193;-63
2022/07/09 00:32:36;;;;;;;2.87;1.47;;;15.30;63.10;;;;;;4882544;29;20283;-63
2022/07/09 00:35:02;;;;;;;2.07;1.30;;;15.30;63.70;;;;;;4845676;29;20291;-63
2022/07/09 00:37:27;;;;;;;3.03;1.53;;;15.30;63.10;;;;;;4864841;29;20224;-63
2022/07/09 00:39:53;;;;;;;2.23;1.97;;;15.20;63.60;;;;;;4849423;29;20201;-63
2022/07/09 00:42:19;;;;;;;2.53;1.60;;;15.20;63.70;;;;;;4874893;29;20226;-63
2022/07/09 00:44:44;;;;;;;2.67;1.53;;;15.20;63.30;;;;;;4868307;29;20200;-63
2022/07/09 00:47:10;;;;;;;2.20;1.47;;;15.20;63.10;;;;;;4852145;29;20196;-63
2022/07/09 00:49:40;;;;;;;2.73;1.53;;;15.30;63.40;;;;;;4852389;29;20199;-63
2022/07/09 00:52:07;;;;;;;1.47;1.30;;;15.30;63.80;;;;;;4882763;29;20224;-62
2022/07/09 00:54:34;;;;;;;4.60;1.50;;;15.20;63.60;;;;;;4851890;29;20204;-63
2022/07/09 00:57:01;;;;;;;1.90;1.67;;;15.10;64.40;;;;;;4864099;29;20230;-63
2022/07/09 00:59:27;;;;;;;2.53;1.40;;;15.20;63.80;;;;;;4864565;29;20220;-63
2022/07/09 01:01:53;;;;;;;3.80;1.40;;;15.10;65.10;;;;;;4851546;29;20208;-62
2022/07/09 01:04:19;;;;;;;1.63;1.40;;;15.10;64.10;;;;;;4867367;29;20196;-63
2022/07/09 01:06:45;;;;;;;5.87;1.57;;;15.10;64.00;;;;;;4867100;29;20207;-63
2022/07/09 01:09:10;;;;;;;2.87;1.47;;;15.10;64.20;;;;;;4871659;29;20252;-62
2022/07/09 01:11:36;;;;;;;3.30;1.50;;;15.10;65.20;;;;;;4867684;29;20200;-63
2022/07/09 01:14:02;;;;;;;3.30;1.40;;;15.00;65.70;;;;;;4882385;29;20191;-62
2022/07/09 01:16:37;;;;;;;3.30;1.70;;;15.00;64.70;;;;;;4864059;29;20489;-63
2022/07/09 01:19:03;;;;;;;3.63;1.43;;;14.90;65.50;;;;;;4860246;29;20219;-62
2022/07/09 01:21:30;;;;;;;5.03;1.60;;;14.90;65.50;;;;;;4877731;29;20783;-63
2022/07/09 01:23:56;;;;;;;2.60;1.53;;;14.80;65.70;;;;;;4879239;29;20185;-63
2022/07/09 01:26:23;;;;;;;2.27;1.40;;;14.80;65.60;;;;;;4860682;29;20202;-63
2022/07/09 01:28:49;;;;;;;1.90;1.40;;;14.80;65.70;;;;;;4883542;29;20246;-62
2022/07/09 01:31:15;;;;;;;3.17;1.60;;;14.70;65.80;;;;;;4872407;29;20196;-62
2022/07/09 01:33:41;;;;;;;1.73;1.40;;;14.70;66.10;;;;;;4863523;29;20271;-62
2022/07/09 01:36:10;;;;;;;2.10;1.40;;;14.70;66.70;;;;;;4871146;29;20203;-62
2022/07/09 01:38:36;;;;;;;2.57;1.40;;;14.60;67.70;;;;;;4869736;29;20220;-62
2022/07/09 01:41:02;;;;;;;3.63;1.50;;;14.70;66.60;;;;;;4862292;29;20201;-62
2022/07/09 01:43:28;;;;;;;1.97;1.50;;;14.70;66.30;;;;;;4866223;29;20181;-63
2022/07/09 01:45:54;;;;;;;1.50;1.30;;;14.70;67.40;;;;;;4863687;29;20345;-62
2022/07/09 01:48:20;;;;;;;1.90;1.53;;;14.70;66.90;;;;;;4873427;29;20200;-62
2022/07/09 01:50:45;;;;;;;3.23;1.50;;;14.80;66.70;;;;;;4840104;29;20207;-62
2022/07/09 01:53:11;;;;;;;1.60;1.47;;;14.70;67.50;;;;;;4865667;29;20226;-62
2022/07/09 01:55:37;;;;;;;2.17;1.50;;;14.60;67.20;;;;;;4847732;29;20203;-62
2022/07/09 01:58:02;;;;;;;2.50;1.57;;;14.60;66.90;;;;;;4853042;29;20763;-62
2022/07/09 02:00:29;;;;;;;2.90;2.13;;;14.50;67.30;;;;;;4859868;29;20200;-62
2022/07/09 02:02:55;;;;;;;2.53;1.83;;;14.60;67.80;;;;;;4866831;29;20192;-63
2022/07/09 02:05:21;;;;;;;2.83;1.63;;;14.60;67.80;;;;;;4885509;29;20218;-62
2022/07/09 02:07:47;;;;;;;4.97;1.73;;;14.60;66.80;;;;;;4850563;29;20237;-63
2022/07/09 02:10:13;;;;;;;2.47;1.70;;;14.60;67.10;;;;;;4881272;29;20195;-62
2022/07/09 02:12:40;;;;;;;1.70;1.17;;;14.60;67.60;;;;;;4870586;29;20203;-62
2022/07/09 02:15:07;;;;;;;2.57;1.70;;;14.40;67.80;;;;;;4885748;29;20191;-62
2022/07/09 02:17:32;;;;;;;4.07;1.60;;;14.50;67.00;;;;;;4875482;29;20267;-62
2022/07/09 02:19:58;;;;;;;4.00;2.00;;;14.50;67.00;;;;;;4868683;29;20199;-62
2022/07/09 02:22:24;;;;;;;1.80;1.70;;;14.40;67.70;;;;;;4853820;29;21169;-62
2022/07/09 02:24:50;;;;;;;2.40;1.43;;;14.40;67.70;;;;;;4851771;29;20196;-62
2022/07/09 02:27:15;;;;;;;4.03;1.90;;;14.30;68.50;;;;;;4867326;29;20287;-62
2022/07/09 02:29:41;;;;;;;1.50;1.40;;;14.30;68.00;;;;;;4869714;29;20271;-62
2022/07/09 02:32:09;;;;;;;2.00;1.40;;;14.30;68.70;;;;;;4850344;29;20223;-62
2022/07/09 02:34:34;;;;;;;1.70;1.40;;;14.30;68.90;;;;;;4870219;29;20214;-62
2022/07/09 02:37:00;;;;;;;1.40;1.30;;;14.20;68.70;;;;;;4853653;29;20196;-62
2022/07/09 02:39:26;;;;;;;3.10;1.87;;;14.20;69.00;;;;;;4885380;29;20199;-62
2022/07/09 02:41:52;;;;;;;2.60;1.30;;;14.20;69.20;;;;;;4870035;29;20404;-63
2022/07/09 02:44:17;;;;;;;1.73;1.40;;;14.30;68.70;;;;;;4854495;29;20196;-62
2022/07/09 02:46:43;;;;;;;4.17;1.70;;;14.30;68.70;;;;;;4852124;29;20192;-62
2022/07/09 02:49:10;;;;;;;3.33;1.87;;;14.30;68.40;;;;;;4854646;29;20224;-62
2022/07/09 02:51:36;;;;;;;1.77;1.60;;;14.30;68.50;;;;;;4870171;29;20192;-62
2022/07/09 02:54:01;;;;;;;1.73;1.20;;;14.20;68.80;;;;;;4868903;29;20210;-62
2022/07/09 02:56:27;;;;;;;1.57;1.40;;;14.20;69.30;;;;;;4877921;29;20204;-62
2022/07/09 02:58:53;;;;;;;3.93;1.70;;;14.10;70.00;;;;;;4881267;29;20220;-62
2022/07/09 03:01:18;;;;;;;2.30;1.63;;;14.10;69.60;;;;;;4851231;29;20199;-62
2022/07/09 03:03:44;;;;;;;1.77;1.67;;;14.10;70.30;;;;;;4854109;29;20191;-62
2022/07/09 03:06:10;;;;;;;2.23;1.40;;;14.20;69.30;;;;;;4884475;29;20192;-62
2022/07/09 03:08:35;;;;;;;1.53;1.43;;;14.10;70.50;;;;;;4854251;29;20195;-62
2022/07/09 03:11:01;;;;;;;1.40;1.30;;;14.20;69.60;;;;;;4858797;29;20203;-62
2022/07/09 03:13:27;;;;;;;1.40;1.30;;;14.00;70.80;;;;;;4897521;29;20196;-62
2022/07/09 03:15:52;;;;;;;2.77;1.60;;;13.80;71.10;;;;;;4850612;29;20212;-62
2022/07/09 03:18:18;;;;;;;1.80;1.40;;;13.80;71.90;;;;;;4879912;29;20220;-62
2022/07/09 03:20:44;;;;;;;2.53;1.40;;;13.80;71.80;;;;;;4866375;29;20224;-62
2022/07/09 03:23:12;;;;;;;4.57;1.60;;;13.80;72.10;;;;;;4866809;29;20192;-62
2022/07/09 03:25:38;;;;;;;4.53;2.03;;;13.70;72.40;;;;;;4871355;29;20183;-62
2022/07/09 03:28:04;;;;;;;3.47;1.67;;;13.70;72.00;;;;;;4853497;29;20243;-62
2022/07/09 03:30:30;;;;;;;3.27;1.83;;;13.70;72.00;;;;;;4862035;29;20212;-62
2022/07/09 03:32:56;;;;;;;2.60;1.60;;;13.70;72.20;;;;;;4853411;29;20196;-62
2022/07/09 03:35:21;;;;;;;4.07;1.73;;;13.70;72.10;;;;;;4851022;29;20203;-62
2022/07/09 03:37:48;;;;;;;3.53;1.70;;;13.70;71.60;;;;;;4850319;29;20220;-63
2022/07/09 03:40:13;;;;;;;1.70;1.43;;;13.70;72.10;;;;;;4894342;29;20184;-63
2022/07/09 03:42:39;;;;;;;1.50;1.40;;;13.60;72.40;;;;;;4850358;29;20199;-63
2022/07/09 03:45:05;;;;;;;1.77;1.40;;;13.50;73.40;;;;;;4845243;29;20244;-64
2022/07/09 03:47:31;;;;;;;1.70;1.60;;;13.60;73.10;;;;;;4848059;29;20231;-63
2022/07/09 03:49:56;;;;;;;2.87;1.57;;;13.60;73.20;;;;;;4861246;29;20304;-64
2022/07/09 03:52:22;;;;;;;2.00;1.77;;;13.60;72.70;;;;;;4851736;29;20225;-63
2022/07/09 03:54:47;;;;;;;1.67;1.50;;;13.60;73.10;;;;;;4860964;29;20196;-63
2022/07/09 03:57:13;;;;;;;2.17;1.97;;;13.50;73.60;;;;;;4872736;29;20223;-63
2022/07/09 03:59:39;;;;;;;2.63;1.60;;;13.50;74.10;;;;;;4857751;29;20189;-63
2022/07/09 04:02:05;;;;;;;2.57;1.90;;;13.50;73.30;;;;;;4866032;29;20200;-63
2022/07/09 04:04:31;;;;;;;3.63;1.63;;;13.50;73.90;;;;;;4869029;29;20229;-63
2022/07/09 04:06:57;;;;;;;3.87;1.67;;;13.50;73.90;;;;;;4876178;29;20211;-63
2022/07/09 04:09:22;;;;;;;1.67;1.57;;;13.50;74.00;;;;;;4851266;29;20196;-63
2022/07/09 04:11:48;;;;;;;2.80;1.87;;;13.60;73.20;;;;;;4842918;29;20204;-63
2022/07/09 04:14:14;;;;;;;2.77;1.60;;;13.50;73.60;;;;;;4850743;29;20203;-63
2022/07/09 04:16:40;;;;;;;5.07;2.00;;;13.50;74.10;;;;;;4888082;29;20195;-64
2022/07/09 04:19:06;;;;;;;3.33;1.77;;;13.50;74.30;;;;;;4882293;29;20211;-63
2022/07/09 04:21:32;;;;;;;2.33;1.80;;;13.50;74.30;;;;;;4900109;29;20199;-63
2022/07/09 04:23:57;;;;;;;2.33;2.13;;;13.60;74.00;;;;;;4868649;29;20195;-63
2022/07/09 04:26:23;;;;;;;5.03;2.00;;;13.50;74.50;;;;;;4857062;29;20220;-63
2022/07/09 04:28:49;;;;;;;3.13;1.70;;;13.50;74.40;;;;;;4862188;29;20239;-63
2022/07/09 04:31:16;;;;;;;2.17;1.87;;;13.60;74.00;;;;;;4864891;29;20255;-63
2022/07/09 04:33:43;;;;;;;8.50;2.03;;;13.60;73.70;;;;;;4868241;29;20203;-64
2022/07/09 04:36:08;;;;;;;2.97;1.70;;;13.60;73.70;;;;;;4867223;29;20200;-64
2022/07/09 04:38:34;;;;;;;1.77;1.57;;;13.60;73.80;;;;;;4848886;29;20227;-63
2022/07/09 04:41:00;;;;;;;3.07;1.60;;;13.70;74.20;;;;;;4864132;29;20197;-63
2022/07/09 04:43:25;;;;;;;1.60;1.50;;;13.70;73.90;;;;;;4864515;29;20200;-63
2022/07/09 04:45:51;;;;;;;2.83;1.87;;;13.70;73.50;;;;;;4866017;29;20219;-63
2022/07/09 04:48:17;;;;;;;3.53;1.90;;;13.70;73.70;;;;;;4882879;29;20195;-63
2022/07/09 04:50:42;;;;;;;2.30;1.53;;;13.80;73.90;;;;;;4842776;29;20220;-63
2022/07/09 04:53:08;;;;;;;2.23;2.03;;;13.80;73.80;;;;;;4879532;29;20212;-63
2022/07/09 04:55:34;;;;;;;1.80;1.50;;;13.80;74.20;;;;;;4852310;29;20203;-63
2022/07/09 04:57:59;;;;;;;2.50;1.70;;;13.80;74.10;;;;;;4867193;29;20227;-63
2022/07/09 05:00:25;;;;;;;3.20;1.73;;;13.80;74.90;;;;;;4867067;29;20202;-63
2022/07/09 05:02:51;;;;;;;1.47;1.37;;;13.90;74.30;;;;;;4865654;29;20196;-63
2022/07/09 05:05:18;;;;;;;3.87;1.80;;;14.00;74.40;;;;;;4866834;29;20286;-63
2022/07/09 05:07:44;;;;;;;2.10;1.83;;;14.00;74.30;;;;;;4867269;29;20220;-63
2022/07/09 05:10:10;;;;;;;1.40;1.30;;;14.00;73.80;;;;;;4867133;29;20250;-63
2022/07/09 05:12:36;;;;;;;1.63;1.50;;;14.10;73.70;;;;;;4866206;29;20283;-63
2022/07/09 05:15:02;;;;;;;2.47;1.80;;;14.10;74.00;;;;;;4872186;29;20200;-63
2022/07/09 05:17:28;;;;;;;1.53;1.43;;;14.10;74.10;;;;;;4873465;29;20224;-63
2022/07/09 05:19:54;;;;;;;1.97;1.50;;;14.20;73.80;;;;;;4861564;29;20196;-63
2022/07/09 05:22:20;;;;;;;3.73;1.80;;;14.20;73.80;;;;;;4862850;29;20188;-63
2022/07/09 05:24:45;;;;;;;2.07;1.97;;;14.30;73.40;;;;;;4875862;29;20191;-67
2022/07/09 05:27:11;;;;;;;2.63;2.07;;;14.30;73.60;;;;;;4850316;29;20198;-64
2022/07/09 05:29:37;;;;;;;3.87;1.60;;;14.30;73.50;;;;;;4848350;29;20351;-63
2022/07/09 05:32:03;;;;;;;2.60;1.83;;;14.40;73.40;;;;;;4861772;29;20207;-63
2022/07/09 05:34:29;;;;;;;1.87;1.77;;;14.40;73.50;;;;;;4853842;29;20199;-63
2022/07/09 05:36:55;;;;;;;3.53;1.87;;;14.40;73.30;;;;;;4877349;29;20199;-63
2022/07/09 05:39:21;;;;;;;3.10;2.00;;;14.40;73.80;;;;;;4876632;29;20203;-63
2022/07/09 05:41:48;;;;;;;2.83;2.10;;;14.40;73.70;;;;;;4870933;29;20203;-63
2022/07/09 05:44:14;;;;;;;3.10;1.87;;;14.40;73.50;;;;;;4847356;29;20279;-63
2022/07/09 05:46:40;;;;;;;2.50;1.83;;;14.50;73.40;;;;;;4864865;29;20184;-63
2022/07/09 05:49:06;;;;;;;2.20;2.00;;;14.50;73.70;;;;;;4873188;29;20200;-63
2022/07/09 05:51:32;;;;;;;5.50;1.80;;;14.60;73.70;;;;;;4858799;29;20225;-63
2022/07/09 05:53:58;;;;;;;4.77;1.80;;;14.60;73.60;;;;;;4890530;29;20203;-63
2022/07/09 05:56:23;;;;;;;2.17;1.57;;;14.70;73.70;;;;;;4867209;29;20298;-63
2022/07/09 05:58:49;;;;;;;3.80;1.90;;;14.80;73.70;;;;;;4874901;29;20291;-63
2022/07/09 06:01:15;;;;;;;2.70;1.57;;;14.80;74.10;;;;;;4866663;29;20206;-63
2022/07/09 06:03:42;;;;;;;1.70;1.40;;;14.80;74.40;;;;;;4881903;29;20202;-63
2022/07/09 06:06:09;;;;;;;1.87;1.70;;;14.80;74.40;;;;;;4882708;29;20222;-63
2022/07/09 06:08:34;;;;;;;1.90;1.70;;;14.90;74.50;;;;;;4880237;29;20201;-63
2022/07/09 06:11:01;;;;;;;3.73;2.07;;;14.90;74.70;;;;;;4852341;29;20210;-63
2022/07/09 06:13:26;;;;;;;4.10;2.00;;;15.00;74.10;;;;;;4866615;29;20203;-63
2022/07/09 06:15:53;;;;;;;3.73;1.87;;;15.10;73.40;;;;;;4848490;29;20197;-63
2022/07/09 06:18:19;;;;;;;2.20;2.00;;;15.10;73.60;;;;;;4876513;29;20230;-63
2022/07/09 06:20:45;;;;;;;4.17;1.87;;;15.20;73.60;;;;;;4872242;29;20192;-63
2022/07/09 06:23:11;;;;;;;1.87;1.60;;;15.30;73.20;;;;;;4863408;29;20193;-63
2022/07/09 06:25:40;;;;;;;1.77;1.67;;;15.40;71.60;;;;;;4907581;29;20203;-63
2022/07/09 06:28:06;;;;;;;1.77;1.50;;;15.50;71.60;;;;;;4863871;29;20294;-63
2022/07/09 06:30:36;;;;;;;2.37;1.40;;;15.60;71.70;;;;;;4864326;29;20201;-63
2022/07/09 06:33:01;;;;;;;3.20;1.50;;;15.60;71.00;;;;;;4903041;29;20197;-64
2022/07/09 06:35:27;;;;;;;2.43;1.47;;;15.70;69.70;;;;;;4878017;29;20244;-64
2022/07/09 06:37:53;;;;;;;1.70;1.40;;;15.80;70.10;;;;;;4867217;29;20224;-64
2022/07/09 06:40:18;;;;;;;4.23;1.60;;;15.90;70.70;;;;;;4854598;29;20195;-64
2022/07/09 06:42:44;;;;;;;2.30;1.50;;;16.00;70.40;;;;;;4885406;29;20197;-65
2022/07/09 06:45:10;;;;;;;6.40;1.70;;;16.00;71.30;;;;;;4847088;29;20194;-65
2022/07/09 06:47:36;;;;;;;2.80;1.60;;;16.00;72.30;;;;;;4874893;29;20195;-65
2022/07/09 06:50:02;;;;;;;2.00;1.60;;;16.10;72.10;;;;;;4884928;29;20196;-63
2022/07/09 06:52:28;;;;;;;1.93;1.30;;;16.10;71.90;;;;;;4853858;29;20197;-64
2022/07/09 06:54:53;;;;;;;3.57;1.83;;;16.10;71.00;;;;;;4882395;29;20271;-63
2022/07/09 06:57:19;;;;;;;3.13;1.33;;;16.20;70.80;;;;;;4866176;29;20212;-63
2022/07/09 06:59:46;;;;;;;2.33;1.03;;;16.30;65.70;;;;;;4850193;29;20243;-63
2022/07/09 07:02:12;;;;;;;1.87;1.57;;;16.60;63.20;;;;;;4884265;29;20184;-63
2022/07/09 07:04:38;;;;;;;2.07;1.40;;;16.80;63.30;;;;;;4863185;29;20239;-62
2022/07/09 07:07:04;;;;;;;1.70;1.20;;;16.90;61.70;;;;;;4884411;29;20219;-62
2022/07/09 07:09:30;;;;;;;3.60;1.57;;;17.10;61.30;;;;;;4864737;29;20287;-62
2022/07/09 07:11:56;;;;;;;1.97;1.13;;;17.10;61.40;;;;;;4868032;29;20288;-62
2022/07/09 07:14:22;;;;;;;2.73;1.30;;;17.30;60.90;;;;;;4862247;29;20201;-62
2022/07/09 07:16:47;;;;;;;2.40;1.40;;;17.30;60.60;;;;;;4869074;29;20198;-62
2022/07/09 07:19:13;;;;;;;2.50;1.30;;;17.40;59.30;;;;;;4869211;29;20288;-62
2022/07/09 07:21:39;;;;;;;1.83;1.10;;;17.80;56.90;;;;;;4845587;29;20203;-62
2022/07/09 07:24:06;;;;;;;3.10;1.60;;;17.90;56.40;;;;;;4870729;29;20204;-61
2022/07/09 07:26:33;;;;;;;8.10;1.50;;;18.20;56.30;;;;;;4875311;29;20195;-60
2022/07/09 07:28:59;;;;;;;1.50;1.37;;;18.00;56.30;;;;;;4854518;29;20248;-60
2022/07/09 07:31:24;;;;;;;2.20;1.50;;;18.20;55.30;;;;;;4850533;29;20236;-60
2022/07/09 07:33:51;;;;;;;2.07;1.10;;;18.20;56.50;;;;;;4868684;29;20204;-60
2022/07/09 07:36:17;;;;;;;3.10;1.43;;;18.10;57.30;;;;;;4871891;29;20261;-60
2022/07/09 07:38:44;;;;;;;3.63;1.50;;;18.10;58.10;;;;;;4897858;29;20216;-62
2022/07/09 07:41:10;;;;;;;1.77;1.13;;;18.10;60.00;;;;;;4858765;29;20251;-60
2022/07/09 07:43:36;;;;;;;2.63;1.27;;;18.10;56.20;;;;;;4852533;29;20275;-62
2022/07/09 07:46:01;;;;;;;2.90;1.23;;;18.20;54.40;;;;;;4837074;29;20200;-62
2022/07/09 07:48:27;;;;;;;2.57;1.23;;;18.20;55.70;;;;;;4854239;29;20205;-62
2022/07/09 07:50:54;;;;;;;2.53;1.10;;;18.20;57.40;;;;;;4863907;29;20211;-62
2022/07/09 07:53:20;;;;;;;2.53;1.30;;;18.20;56.50;;;;;;4850386;29;20197;-61
2022/07/09 07:55:46;;;;;;;3.67;1.43;;;18.30;55.40;;;;;;4864250;29;20208;-61
2022/07/09 07:58:12;;;;;;;1.20;1.10;;;18.30;54.30;;;;;;4852723;29;20347;-61
2022/07/09 08:00:37;;;;;;;3.83;1.03;;;18.40;54.10;;;;;;4862723;29;20249;-61
2022/07/09 08:03:03;;;;;;;2.37;1.10;;;18.50;54.20;;;;;;4855559;29;20207;-60
2022/07/09 08:05:29;;;;;;;4.13;1.50;;;18.60;55.00;;;;;;4862913;29;20197;-60
2022/07/09 08:07:55;;;;;;;1.63;1.37;;;18.60;57.20;;;;;;4879929;29;20204;-62
2022/07/09 08:10:21;;;;;;;2.60;1.33;;;18.60;58.40;;;;;;4871998;29;20255;-61
2022/07/09 08:12:46;;;;;;;2.53;1.47;;;18.70;55.40;;;;;;4862179;29;20204;-61
2022/07/09 08:15:12;;;;;;;4.43;1.00;;;18.80;54.10;;;;;;4847358;29;20205;-62
2022/07/09 08:17:38;;;;;;;2.37;1.20;;;18.80;55.60;;;;;;4867629;29;20223;-61
2022/07/09 08:20:05;;;;;;;2.00;1.10;;;18.80;57.10;;;;;;4868934;29;20201;-61
2022/07/09 08:22:31;;;;;;;1.70;1.13;;;18.80;56.50;;;;;;4868334;29;20277;-61
2022/07/09 08:24:56;;;;;;;1.20;1.10;;;18.90;54.70;;;;;;4876649;29;20217;-62
2022/07/09 08:27:22;;;;;;;1.33;1.10;;;18.90;54.70;;;;;;4873631;29;20199;-61
2022/07/09 08:29:49;;;;;;;3.77;1.20;;;18.90;56.10;;;;;;4867471;29;20327;-61
2022/07/09 08:32:15;;;;;;;1.90;1.37;;;19.00;55.20;;;;;;4847643;29;20226;-61
2022/07/09 08:34:41;;;;;;;3.73;1.43;;;19.10;55.40;;;;;;4863535;29;20254;-61
2022/07/09 08:37:06;;;;;;;1.30;0.90;;;19.10;56.20;;;;;;4871126;29;20196;-61
2022/07/09 08:39:32;;;;;;;2.30;1.20;;;19.10;55.80;;;;;;4851929;29;20199;-61
2022/07/09 08:42:03;;;;;;;3.23;1.30;;;19.20;53.70;;;;;;4881682;29;20251;-62
2022/07/09 08:44:33;;;;;;;2.30;1.13;;;19.30;53.60;;;;;;4886164;29;20199;-62
2022/07/09 08:47:01;;;;;;;2.27;1.27;;;19.50;54.20;;;;;;4867531;29;20199;-63
2022/07/09 08:49:28;;;;;;;1.70;1.13;;;19.50;55.20;;;;;;4876539;29;20193;-63
2022/07/09 08:51:55;;;;;;;1.47;0.97;;;19.60;53.50;;;;;;4864586;29;20235;-63
2022/07/09 08:54:22;;;;;;;3.67;1.13;;;19.70;52.20;;;;;;4877728;29;20200;-63
2022/07/09 08:56:47;;;;;;;1.97;1.20;;;19.70;53.50;;;;;;4865742;29;20195;-63
2022/07/09 08:59:13;;;;;;;0.90;0.70;;;19.80;52.50;;;;;;4855657;29;20228;-64
2022/07/09 09:01:39;;;;;;;1.60;1.13;;;19.80;51.10;;;;;;4845506;29;20201;-63
2022/07/09 09:04:05;;;;;;;3.03;1.10;;;20.00;51.00;;;;;;4849071;29;20256;-64
2022/07/09 09:06:37;;;;;;;2.07;1.20;;;20.10;52.10;;;;;;4862707;29;20216;-64
2022/07/09 09:09:03;;;;;;;2.70;1.53;;;20.20;50.90;;;;;;4870607;29;20203;-65
2022/07/09 09:11:31;;;;;;;1.20;1.10;;;20.20;48.80;;;;;;4867590;29;20207;-63
2022/07/09 09:13:57;;;;;;;0.83;0.83;;;20.30;48.10;;;;;;4864631;29;20200;-63
2022/07/09 09:16:23;;;;;;;4.33;1.20;;;20.20;48.90;;;;;;4857016;29;20239;-63
2022/07/09 09:18:50;;;;;;;2.17;1.03;;;20.20;49.50;;;;;;4855030;29;20251;-63
2022/07/09 09:21:20;;;;;;;2.43;1.07;;;20.20;48.40;;;;;;4877363;29;20195;-63
2022/07/09 09:23:52;;;;;;;1.60;0.90;;;20.30;48.40;;;;;;4875452;29;20201;-63
2022/07/09 09:26:26;;;;;;;1.87;1.00;;;20.30;49.40;;;;;;4862120;29;20219;-63
2022/07/09 09:28:54;;;;;;;1.80;1.00;;;20.40;48.30;;;;;;4872883;29;20247;-63
2022/07/09 09:31:34;;;;;;;1.30;1.00;;;20.50;47.70;;;;;;4868653;29;20259;-63
2022/07/09 09:34:09;;;;;;;1.27;1.17;;;20.40;47.80;;;;;;4876490;29;20226;-63
2022/07/09 09:36:36;;;;;;;2.83;1.23;;;20.50;46.60;;;;;;4877392;29;20195;-62
2022/07/09 09:39:15;;;;;;;2.07;1.10;;;20.50;46.70;;;;;;4862591;29;20216;-62
2022/07/09 09:41:51;;;;;;;2.23;1.00;;;20.50;47.30;;;;;;4881064;29;20187;-62
2022/07/09 09:44:20;;;;;;;2.73;1.03;;;20.50;48.40;;;;;;4879370;29;20217;-62
2022/07/09 09:46:46;;;;;;;0.90;0.77;;;20.50;47.40;;;;;;4872669;29;20249;-62
2022/07/09 09:49:15;;;;;;;1.43;0.80;;;20.60;46.40;;;;;;4875194;29;20196;-62
2022/07/09 09:52:04;;;;;;;2.77;0.90;;;20.70;45.50;;;;;;4882365;29;20195;-62
2022/07/09 09:54:32;;;;;;;2.17;1.00;;;20.80;47.60;;;;;;4882021;29;20274;-62
2022/07/09 09:56:59;;;;;;;1.13;0.97;;;20.80;45.90;;;;;;4872436;29;20196;-62
2022/07/09 09:59:25;;;;;;;4.43;0.90;;;20.90;43.80;;;;;;4862455;29;20220;-62
2022/07/09 10:01:51;;;;;;;1.43;1.10;;;20.90;44.70;;;;;;4872821;29;20192;-61
2022/07/09 10:04:18;;;;;;;2.67;1.30;;;21.00;45.10;;;;;;4868458;29;20199;-62
2022/07/09 10:06:44;;;;;;;2.23;1.23;;;21.00;45.40;;;;;;4875361;29;20198;-62
2022/07/09 10:09:14;;;;;;;3.03;1.23;;;20.90;43.70;;;;;;4859569;29;20199;-62
2022/07/09 10:11:46;;;;;;;1.47;0.80;;;20.80;43.60;;;;;;4869405;29;20200;-62
2022/07/09 10:14:29;;;;;;;1.60;1.00;;;21.00;43.20;;;;;;4870925;29;20200;-62
2022/07/09 10:16:55;;;;;;;2.50;1.07;;;21.10;42.70;;;;;;4879814;29;20210;-61
2022/07/09 10:19:25;;;;;;;1.87;1.30;;;21.20;44.70;;;;;;4850452;29;20212;-62
2022/07/09 10:21:56;;;;;;;1.87;0.87;;;21.30;42.40;;;;;;4868907;29;20200;-62
2022/07/09 10:24:26;;;;;;;1.90;0.77;;;21.30;43.40;;;;;;4885668;29;20184;-62
2022/07/09 10:26:52;;;;;;;1.60;1.00;;;21.40;43.50;;;;;;4858394;29;20197;-62
2022/07/09 10:29:18;;;;;;;1.83;0.90;;;21.60;42.40;;;;;;4867184;29;20284;-62
2022/07/09 10:31:45;;;;;;;1.03;0.87;;;21.70;41.30;;;;;;4879573;29;20252;-63
2022/07/09 10:34:35;;;;;;;1.33;0.97;;;21.60;41.80;;;;;;4873489;29;20199;-63
2022/07/09 10:37:02;;;;;;;2.10;1.33;;;21.80;41.90;;;;;;4876363;29;20237;-62
2022/07/09 10:39:29;;;;;;;1.60;1.10;;;21.80;42.90;;;;;;4869645;29;20271;-62
2022/07/09 10:42:06;;;;;;;1.57;0.87;;;21.80;41.20;;;;;;4861557;29;20293;-62
2022/07/09 10:44:40;;;;;;;1.83;0.90;;;22.00;44.10;;;;;;4868715;29;20200;-62
2022/07/09 10:47:06;;;;;;;1.53;0.87;;;21.90;40.90;;;;;;4882357;29;20199;-62
2022/07/09 10:49:36;;;;;;;0.93;0.60;;;21.90;41.70;;;;;;4838294;29;20245;-62
2022/07/09 10:52:03;;;;;;;1.37;0.80;;;22.00;43.40;;;;;;4862331;29;20230;-62
2022/07/09 10:54:28;;;;;;;2.97;0.90;;;22.20;41.70;;;;;;4862729;29;20329;-62
2022/07/09 10:56:55;;;;;;;1.17;0.63;;;22.10;40.00;;;;;;4874000;29;20295;-62
2022/07/09 10:59:22;;;;;;;1.10;0.97;;;22.00;38.70;;;;;;4855492;29;20216;-62
2022/07/09 11:01:48;;;;;;;3.83;0.90;;;22.00;42.60;;;;;;4843585;29;20200;-62
2022/07/09 11:04:30;;;;;;;3.03;0.73;;;22.00;41.10;;;;;;4841066;29;20204;-62
2022/07/09 11:06:57;;;;;;;0.90;0.90;;;22.00;42.10;;;;;;4875647;29;20195;-62
2022/07/09 11:09:27;;;;;;;1.33;0.90;;;22.20;41.70;;;;;;4851420;29;20200;-62
2022/07/09 11:11:53;;;;;;;1.73;0.97;;;22.20;42.10;;;;;;4871694;29;20295;-62
2022/07/09 11:14:19;;;;;;;0.97;0.80;;;22.30;41.70;;;;;;4862223;29;20296;-62
2022/07/09 11:16:54;;;;;;;1.17;0.80;;;22.50;39.60;;;;;;4849490;29;20237;-62
2022/07/09 11:19:21;;;;;;;3.87;0.80;;;22.50;39.80;;;;;;4881176;29;20220;-62
2022/07/09 11:21:47;;;;;;;1.43;1.00;;;22.40;40.10;;;;;;4864045;29;20204;-62
2022/07/09 11:24:23;;;;;;;1.63;0.97;;;22.40;41.10;;;;;;4874343;29;20231;-62
2022/07/09 11:26:49;;;;;;;1.60;0.80;;;22.60;40.20;;;;;;4853603;29;20192;-62
2022/07/09 11:29:17;;;;;;;1.77;0.90;;;22.70;40.90;;;;;;4853908;29;20295;-62
2022/07/09 11:31:50;;;;;;;2.77;0.80;;;22.70;39.90;;;;;;4884114;29;20196;-62
2022/07/09 11:34:18;;;;;;;0.93;0.70;;;22.80;39.40;;;;;;4870305;29;20191;-62
2022/07/09 11:36:50;;;;;;;2.37;1.27;;;22.60;39.70;;;;;;4877667;29;20259;-62
2022/07/09 11:39:33;;;;;;;0.83;0.70;;;22.70;40.30;;;;;;4882058;29;20248;-62
2022/07/09 11:42:00;;;;;;;0.97;0.80;;;22.60;42.30;;;;;;4876512;29;20191;-62
2022/07/09 11:44:34;;;;;;;2.83;1.00;;;22.70;41.00;;;;;;4865349;29;20216;-62
2022/07/09 11:47:21;;;;;;;1.03;0.70;;;22.90;41.90;;;;;;4856019;29;20196;-62
2022/07/09 11:49:48;;;;;;;1.80;0.70;;;23.10;43.90;;;;;;4858451;29;20198;-62
2022/07/09 11:52:22;;;;;;;1.10;0.73;;;23.20;41.40;;;;;;4882855;29;20196;-62
2022/07/09 11:55:07;;;;;;;1.07;0.77;;;23.20;38.00;;;;;;4848463;29;20251;-62
2022/07/09 11:57:35;;;;;;;1.40;0.77;;;23.40;39.80;;;;;;4875234;29;20275;-62
2022/07/09 12:00:05;;;;;;;2.30;0.80;;;23.50;44.30;;;;;;4869500;29;20196;-63
2022/07/09 12:02:32;;;;;;;0.70;0.60;;;23.60;40.00;;;;;;4860516;29;20196;-62
2022/07/09 12:05:05;;;;;;;0.83;0.63;;;24.00;38.40;;;;;;4875365;29;20188;-63
2022/07/09 12:07:32;;;;;;;1.70;1.17;;;24.20;40.80;;;;;;4890201;29;20183;-63
2022/07/09 12:10:08;;;;;;;1.20;0.67;;;24.50;37.50;;;;;;4870475;29;20243;-63
2022/07/09 12:12:36;;;;;;;1.27;0.70;;;24.90;37.80;;;;;;4888638;29;20243;-63
2022/07/09 12:15:03;;;;;;;1.50;0.70;;;25.00;38.50;;;;;;4873588;29;20192;-63
2022/07/09 12:17:30;;;;;;;0.60;0.60;;;24.80;38.90;;;;;;4868008;29;20196;-64
2022/07/09 12:19:58;;;;;;;1.20;0.60;;;25.30;39.20;;;;;;4871657;29;20192;-63
2022/07/09 12:22:25;;;;;;;2.30;0.63;;;25.90;38.10;;;;;;4865816;29;20267;-63
2022/07/09 12:24:52;;;;;;;0.93;0.70;;;26.30;35.30;;;;;;4847804;29;20249;-63
2022/07/09 12:27:19;;;;;;;0.60;0.60;;;26.60;36.90;;;;;;4847489;29;20283;-63
2022/07/09 12:29:46;;;;;;;1.90;0.90;;;26.50;35.00;;;;;;4898272;29;20238;-63
2022/07/09 12:32:12;;;;;;;1.43;0.80;;;26.20;37.10;;;;;;4873799;29;20219;-64
2022/07/09 12:34:38;;;;;;;3.17;1.40;;;26.70;37.40;;;;;;4878281;29;20215;-63
2022/07/09 12:37:04;;;;;;;3.30;1.00;;;27.60;41.20;;;;;;4857699;29;20231;-61
2022/07/09 12:39:30;;;;;;;2.77;0.77;;;28.10;33.40;;;;;;4862062;29;20252;-62
2022/07/09 12:41:55;;;;;;;1.87;0.90;;;28.50;37.20;;;;;;4868081;29;20207;-61
2022/07/09 12:44:21;;;;;;;1.53;0.70;;;29.00;29.50;;;;;;4848519;29;20245;-62
2022/07/09 12:46:48;;;;;;;1.23;1.00;;;29.00;31.50;;;;;;4859100;29;20193;-61